KEVW

Evanston-Uinta County Burns Field Airport

Evanston, Wyoming, USA
METAR KEVW 221453Z AUTO 06009KT 10SM OVC110 09/05 A3007 RMK AO2 SLP120 T00890050 51013
Observed Flight Rules
May-22 @ 14:53 UTC (57 minutes ago) Visual Flight Rules
Wind Visibility Clouds
60° at 9 knots 10 miles
  • Overcast at 11,000' AGL
Temperatures Readings
Current 9°C / 48°F
Dewpoint 5°C / 41°F
Humidity 76%
Altimeter 30.07" Hg
Pressure 1012 hPa
Elevation 2177
METAR KEVW 221453Z AUTO 06009KT 10SM OVC110 09/05 A3007 RMK AO2 SLP120 T00890050 51013
Observed Flight Rules
May-22 @ 14:53 UTC
(57 minutes ago)
VFR
Wind Visibility
60° at 9 knots 10 miles
Clouds
  • Overcast at 11,000' AGL
Temperature Dewpoint
9°C / 48°F 5°C / 41°F
Humidity Altimeter Pressure
76% 30.07" Hg 1012 hPa